sensor_id;sensor_type;location;lat;lon;timestamp;pressure;altitude;pressure_sealevel;temperature;humidity
74778;BME280;63298;53.164;8.610;2023-04-24T00:00:01;100019.81;;;14.04;70.22
74778;BME280;63298;53.164;8.610;2023-04-24T00:02:27;100005.09;;;13.98;70.19
74778;BME280;63298;53.164;8.610;2023-04-24T00:04:52;100014.84;;;13.96;70.51
74778;BME280;63298;53.164;8.610;2023-04-24T00:07:18;100006.22;;;13.92;70.17
74778;BME280;63298;53.164;8.610;2023-04-24T00:09:43;100017.63;;;13.91;70.87
74778;BME280;63298;53.164;8.610;2023-04-24T00:12:09;100012.59;;;13.88;70.81
74778;BME280;63298;53.164;8.610;2023-04-24T00:14:35;100007.91;;;13.83;71.05
74778;BME280;63298;53.164;8.610;2023-04-24T00:17:00;99990.75;;;13.76;70.68
74778;BME280;63298;53.164;8.610;2023-04-24T00:19:26;99997.91;;;13.77;70.77
74778;BME280;63298;53.164;8.610;2023-04-24T00:21:51;99998.75;;;13.82;70.59
74778;BME280;63298;53.164;8.610;2023-04-24T00:24:17;99996.81;;;13.78;70.84
74778;BME280;63298;53.164;8.610;2023-04-24T00:26:42;100007.91;;;13.78;71.10
74778;BME280;63298;53.164;8.610;2023-04-24T00:29:08;100002.66;;;13.71;70.46
74778;BME280;63298;53.164;8.610;2023-04-24T00:31:33;99987.41;;;13.64;70.55
74778;BME280;63298;53.164;8.610;2023-04-24T00:33:58;100006.25;;;13.72;70.70
74778;BME280;63298;53.164;8.610;2023-04-24T00:36:24;99992.69;;;13.65;71.10
74778;BME280;63298;53.164;8.610;2023-04-24T00:38:49;100004.88;;;13.64;71.04
74778;BME280;63298;53.164;8.610;2023-04-24T00:41:14;99987.13;;;13.65;70.56
74778;BME280;63298;53.164;8.610;2023-04-24T00:43:39;100004.31;;;13.72;70.30
74778;BME280;63298;53.164;8.610;2023-04-24T00:46:05;99987.41;;;13.64;70.71
74778;BME280;63298;53.164;8.610;2023-04-24T00:48:31;99987.69;;;13.62;70.56
74778;BME280;63298;53.164;8.610;2023-04-24T00:50:56;99993.22;;;13.62;70.54
74778;BME280;63298;53.164;8.610;2023-04-24T00:53:22;100005.97;;;13.63;70.52
74778;BME280;63298;53.164;8.610;2023-04-24T00:55:47;99994.06;;;13.53;70.52
74778;BME280;63298;53.164;8.610;2023-04-24T00:58:12;99990.19;;;13.54;70.66
74778;BME280;63298;53.164;8.610;2023-04-24T01:00:38;99997.97;;;13.52;70.64
74778;BME280;63298;53.164;8.610;2023-04-24T01:03:04;99996.81;;;13.53;70.32
74778;BME280;63298;53.164;8.610;2023-04-24T01:05:30;100007.63;;;13.44;70.36
74778;BME280;63298;53.164;8.610;2023-04-24T01:07:56;100007.63;;;13.44;70.00
74778;BME280;63298;53.164;8.610;2023-04-24T01:10:22;100010.69;;;13.43;69.60
74778;BME280;63298;53.164;8.610;2023-04-24T01:12:49;100002.34;;;13.32;69.46
74778;BME280;63298;53.164;8.610;2023-04-24T01:15:15;100005.13;;;13.37;69.73
74778;BME280;63298;53.164;8.610;2023-04-24T01:17:40;99996.81;;;13.27;69.49
74778;BME280;63298;53.164;8.610;2023-04-24T01:20:06;99990.47;;;13.27;69.08
74778;BME280;63298;53.164;8.610;2023-04-24T01:22:33;99994.03;;;13.32;69.01
74778;BME280;63298;53.164;8.610;2023-04-24T01:24:58;99980.19;;;13.22;68.86
74778;BME280;63298;53.164;8.610;2023-04-24T01:27:24;99980.19;;;13.22;68.73
74778;BME280;63298;53.164;8.610;2023-04-24T01:29:49;99978.25;;;13.23;68.67
74778;BME280;63298;53.164;8.610;2023-04-24T01:32:15;99975.78;;;13.21;68.52
74778;BME280;63298;53.164;8.610;2023-04-24T01:34:40;99968.84;;;13.14;68.44
74778;BME280;63298;53.164;8.610;2023-04-24T01:37:06;99967.47;;;13.16;68.76
74778;BME280;63298;53.164;8.610;2023-04-24T01:39:32;99966.84;;;13.09;68.33
74778;BME280;63298;53.164;8.610;2023-04-24T01:41:57;99967.16;;;13.13;68.22
74778;BME280;63298;53.164;8.610;2023-04-24T01:44:23;99957.44;;;13.10;68.10
74778;BME280;63298;53.164;8.610;2023-04-24T01:46:48;99970.22;;;13.11;68.27
74778;BME280;63298;53.164;8.610;2023-04-24T01:49:13;99956.34;;;13.06;67.99
74778;BME280;63298;53.164;8.610;2023-04-24T01:51:39;99957.72;;;13.04;68.33
74778;BME280;63298;53.164;8.610;2023-04-24T01:54:04;99965.19;;;13.08;68.31
74778;BME280;63298;53.164;8.610;2023-04-24T01:56:29;99949.72;;;13.07;67.73
74778;BME280;63298;53.164;8.610;2023-04-24T01:58:56;99951.91;;;13.05;68.39
74778;BME280;63298;53.164;8.610;2023-04-24T02:01:23;99947.72;;;12.97;67.91
74778;BME280;63298;53.164;8.610;2023-04-24T02:03:49;99954.09;;;13.03;67.83
74778;BME280;63298;53.164;8.610;2023-04-24T02:06:14;99953.56;;;13.06;67.90
74778;BME280;63298;53.164;8.610;2023-04-24T02:08:39;99959.66;;;13.03;67.97
74778;BME280;63298;53.164;8.610;2023-04-24T02:11:05;99942.75;;;12.99;68.36
74778;BME280;63298;53.164;8.610;2023-04-24T02:13:30;99943.84;;;12.98;67.69
74778;BME280;63298;53.164;8.610;2023-04-24T02:15:55;99950.22;;;12.99;67.69
74778;BME280;63298;53.164;8.610;2023-04-24T02:18:21;99949.13;;;12.95;67.84
74778;BME280;63298;53.164;8.610;2023-04-24T02:20:46;99956.31;;;12.96;67.67
74778;BME280;63298;53.164;8.610;2023-04-24T02:23:11;99950.78;;;13.01;67.55
74778;BME280;63298;53.164;8.610;2023-04-24T02:25:36;99954.09;;;12.98;67.25
74778;BME280;63298;53.164;8.610;2023-04-24T02:28:02;99944.44;;;13.01;67.34
74778;BME280;63298;53.164;8.610;2023-04-24T02:30:27;99944.69;;;12.99;67.51
74778;BME280;63298;53.164;8.610;2023-04-24T02:32:53;99940.00;;;12.99;67.63
74778;BME280;63298;53.164;8.610;2023-04-24T02:35:19;99948.03;;;12.96;67.50
74778;BME280;63298;53.164;8.610;2023-04-24T02:38:00;99925.88;;;12.91;67.52
74778;BME280;63298;53.164;8.610;2023-04-24T02:40:25;99940.25;;;12.88;67.85
74778;BME280;63298;53.164;8.610;2023-04-24T02:42:51;99934.44;;;12.94;67.65
74778;BME280;63298;53.164;8.610;2023-04-24T02:45:16;99924.19;;;12.85;67.38
74778;BME280;63298;53.164;8.610;2023-04-24T02:47:42;99927.78;;;12.80;67.86
74778;BME280;63298;53.164;8.610;2023-04-24T02:50:07;99947.44;;;12.79;67.43
74778;BME280;63298;53.164;8.610;2023-04-24T02:52:33;99940.25;;;12.73;67.47
74778;BME280;63298;53.164;8.610;2023-04-24T02:54:58;99952.94;;;12.69;67.65
74778;BME280;63298;53.164;8.610;2023-04-24T02:57:25;99946.84;;;12.67;67.86
74778;BME280;63298;53.164;8.610;2023-04-24T02:59:50;99959.84;;;12.66;67.67
74778;BME280;63298;53.164;8.610;2023-04-24T03:02:16;99952.38;;;12.57;68.38
74778;BME280;63298;53.164;8.610;2023-04-24T03:04:41;99949.84;;;12.55;68.62
74778;BME280;63298;53.164;8.610;2023-04-24T03:07:07;99944.03;;;12.46;68.52
74778;BME280;63298;53.164;8.610;2023-04-24T03:09:32;99952.09;;;12.53;68.39
74778;BME280;63298;53.164;8.610;2023-04-24T03:11:58;99966.69;;;12.48;68.73
74778;BME280;63298;53.164;8.610;2023-04-24T03:14:24;99963.41;;;12.46;69.02
74778;BME280;63298;53.164;8.610;2023-04-24T03:16:49;99951.47;;;12.41;68.57
74778;BME280;63298;53.164;8.610;2023-04-24T03:19:15;99958.94;;;12.45;69.48
74778;BME280;63298;53.164;8.610;2023-04-24T03:21:41;99950.91;;;12.39;69.31
74778;BME280;63298;53.164;8.610;2023-04-24T03:24:09;99951.22;;;12.42;69.30
74778;BME280;63298;53.164;8.610;2023-04-24T03:26:35;99955.59;;;12.38;69.13
74778;BME280;63298;53.164;8.610;2023-04-24T03:29:01;99954.25;;;12.41;68.81
74778;BME280;63298;53.164;8.610;2023-04-24T03:31:27;99967.50;;;12.39;68.98
74778;BME280;63298;53.164;8.610;2023-04-24T03:33:53;99960.59;;;12.36;69.17
74778;BME280;63298;53.164;8.610;2023-04-24T03:36:18;99966.13;;;12.41;69.02
74778;BME280;63298;53.164;8.610;2023-04-24T03:38:43;99967.50;;;12.39;69.46
74778;BME280;63298;53.164;8.610;2023-04-24T03:41:09;99953.13;;;12.37;68.86
74778;BME280;63298;53.164;8.610;2023-04-24T03:43:35;99968.34;;;12.44;68.93
74778;BME280;63298;53.164;8.610;2023-04-24T03:46:00;99975.81;;;12.44;68.71
74778;BME280;63298;53.164;8.610;2023-04-24T03:48:26;99966.13;;;12.41;68.84
74778;BME280;63298;53.164;8.610;2023-04-24T03:50:51;99963.34;;;12.36;69.01
74778;BME280;63298;53.164;8.610;2023-04-24T03:53:17;99966.09;;;12.31;69.17
74778;BME280;63298;53.164;8.610;2023-04-24T03:55:42;99958.91;;;12.35;69.37
74778;BME280;63298;53.164;8.610;2023-04-24T03:58:08;99952.25;;;12.31;69.07
74778;BME280;63298;53.164;8.610;2023-04-24T04:00:33;99955.59;;;12.33;69.46
74778;BME280;63298;53.164;8.610;2023-04-24T04:02:58;99963.59;;;12.35;69.34
74778;BME280;63298;53.164;8.610;2023-04-24T04:05:24;99963.09;;;12.38;69.27
74778;BME280;63298;53.164;8.610;2023-04-24T04:07:49;99956.69;;;12.32;69.40
74778;BME280;63298;53.164;8.610;2023-04-24T04:10:14;99963.63;;;12.40;69.40
74778;BME280;63298;53.164;8.610;2023-04-24T04:12:39;99960.03;;;12.39;68.72
74778;BME280;63298;53.164;8.610;2023-04-24T04:15:05;99967.22;;;12.40;69.25
74778;BME280;63298;53.164;8.610;2023-04-24T04:17:31;99967.78;;;12.37;68.83
74778;BME280;63298;53.164;8.610;2023-04-24T04:19:56;99959.75;;;12.36;68.90
74778;BME280;63298;53.164;8.610;2023-04-24T04:22:22;99978.56;;;12.39;69.16
74778;BME280;63298;53.164;8.610;2023-04-24T04:24:47;99962.75;;;12.29;68.91
74778;BME280;63298;53.164;8.610;2023-04-24T04:27:12;99967.22;;;12.35;69.13
74778;BME280;63298;53.164;8.610;2023-04-24T04:29:38;99959.47;;;12.32;69.12
74778;BME280;63298;53.164;8.610;2023-04-24T04:32:03;99958.66;;;12.37;68.51
74778;BME280;63298;53.164;8.610;2023-04-24T04:34:28;99973.31;;;12.37;68.97
74778;BME280;63298;53.164;8.610;2023-04-24T04:36:54;99976.09;;;12.37;68.71
74778;BME280;63298;53.164;8.610;2023-04-24T04:39:19;99977.75;;;12.43;68.59
74778;BME280;63298;53.164;8.610;2023-04-24T04:41:44;99979.94;;;12.36;68.75
74778;BME280;63298;53.164;8.610;2023-04-24T04:44:09;99981.31;;;12.39;68.93
74778;BME280;63298;53.164;8.610;2023-04-24T04:46:35;99986.59;;;12.40;68.72
74778;BME280;63298;53.164;8.610;2023-04-24T04:49:01;99963.91;;;12.38;68.73
74778;BME280;63298;53.164;8.610;2023-04-24T04:51:27;99983.56;;;12.42;68.27
74778;BME280;63298;53.164;8.610;2023-04-24T04:53:53;99982.44;;;12.38;68.19
74778;BME280;63298;53.164;8.610;2023-04-24T04:56:18;99978.88;;;12.42;67.96
74778;BME280;63298;53.164;8.610;2023-04-24T04:58:43;99982.19;;;12.44;68.09
74778;BME280;63298;53.164;8.610;2023-04-24T05:01:09;99978.03;;;12.42;68.29
74778;BME280;63298;53.164;8.610;2023-04-24T05:03:34;99978.88;;;12.42;68.48
74778;BME280;63298;53.164;8.610;2023-04-24T05:05:59;99986.06;;;12.48;67.89
74778;BME280;63298;53.164;8.610;2023-04-24T05:08:25;99986.63;;;12.45;67.92
74778;BME280;63298;53.164;8.610;2023-04-24T05:10:50;99994.94;;;12.50;68.25
74778;BME280;63298;53.164;8.610;2023-04-24T05:13:15;99986.06;;;12.48;68.01
74778;BME280;63298;53.164;8.610;2023-04-24T05:15:41;99985.50;;;12.41;68.18
74778;BME280;63298;53.164;8.610;2023-04-24T05:18:06;99989.97;;;12.47;68.03
74778;BME280;63298;53.164;8.610;2023-04-24T05:20:31;99987.72;;;12.49;68.21
74778;BME280;63298;53.164;8.610;2023-04-24T05:22:56;99975.03;;;12.53;67.70
74778;BME280;63298;53.164;8.610;2023-04-24T05:25:22;99995.53;;;12.58;67.60
74778;BME280;63298;53.164;8.610;2023-04-24T05:27:47;99986.63;;;12.50;67.76
74778;BME280;63298;53.164;8.610;2023-04-24T05:30:12;99986.91;;;12.54;67.59
74778;BME280;63298;53.164;8.610;2023-04-24T05:32:38;100002.16;;;12.57;67.66
74778;BME280;63298;53.164;8.610;2023-04-24T05:35:03;99994.13;;;12.55;67.51
74778;BME280;63298;53.164;8.610;2023-04-24T05:37:29;99994.41;;;12.59;66.96
74778;BME280;63298;53.164;8.610;2023-04-24T05:39:54;99996.06;;;12.54;67.79
74778;BME280;63298;53.164;8.610;2023-04-24T05:42:19;99991.34;;;12.55;67.82
74778;BME280;63298;53.164;8.610;2023-04-24T05:44:45;99994.13;;;12.60;67.56
74778;BME280;63298;53.164;8.610;2023-04-24T05:47:10;99998.59;;;12.61;67.60
74778;BME280;63298;53.164;8.610;2023-04-24T05:49:35;99993.84;;;12.51;67.50
74778;BME280;63298;53.164;8.610;2023-04-24T05:52:01;99996.88;;;12.50;68.00
74778;BME280;63298;53.164;8.610;2023-04-24T05:54:26;100009.63;;;12.56;67.77
74778;BME280;63298;53.164;8.610;2023-04-24T05:56:51;100013.22;;;12.57;68.03
74778;BME280;63298;53.164;8.610;2023-04-24T05:59:17;100005.44;;;12.53;67.53
74778;BME280;63298;53.164;8.610;2023-04-24T06:01:42;100020.72;;;12.61;67.90
74778;BME280;63298;53.164;8.610;2023-04-24T06:04:07;100012.41;;;12.61;67.83
74778;BME280;63298;53.164;8.610;2023-04-24T06:06:33;99999.66;;;12.55;68.08
74778;BME280;63298;53.164;8.610;2023-04-24T06:08:58;99991.66;;;12.64;67.30
74778;BME280;63298;53.164;8.610;2023-04-24T06:11:23;100003.56;;;12.69;67.49
74778;BME280;63298;53.164;8.610;2023-04-24T06:13:49;100002.25;;;12.77;67.59
74778;BME280;63298;53.164;8.610;2023-04-24T06:16:14;100005.53;;;12.79;67.59
74778;BME280;63298;53.164;8.610;2023-04-24T06:18:39;100009.44;;;12.83;67.19
74778;BME280;63298;53.164;8.610;2023-04-24T06:21:05;100003.63;;;12.84;67.44
74778;BME280;63298;53.164;8.610;2023-04-24T06:23:30;100017.47;;;12.84;67.36
74778;BME280;63298;53.164;8.610;2023-04-24T06:25:55;99995.03;;;12.81;67.52
74778;BME280;63298;53.164;8.610;2023-04-24T06:28:21;99999.19;;;12.83;67.15
74778;BME280;63298;53.164;8.610;2023-04-24T06:30:46;100016.38;;;12.90;67.18
74778;BME280;63298;53.164;8.610;2023-04-24T06:33:11;100008.91;;;12.86;67.06
74778;BME280;63298;53.164;8.610;2023-04-24T06:35:36;100023.84;;;12.90;67.01
74778;BME280;63298;53.164;8.610;2023-04-24T06:38:02;100020.81;;;12.91;67.02
74778;BME280;63298;53.164;8.610;2023-04-24T06:40:27;100022.19;;;12.94;67.46
74778;BME280;63298;53.164;8.610;2023-04-24T06:42:52;100027.47;;;12.95;66.97
74778;BME280;63298;53.164;8.610;2023-04-24T06:45:18;100020.84;;;12.96;67.53
74778;BME280;63298;53.164;8.610;2023-04-24T06:47:44;100032.44;;;12.98;66.93
74778;BME280;63298;53.164;8.610;2023-04-24T06:50:09;100031.91;;;12.91;67.21
74778;BME280;63298;53.164;8.610;2023-04-24T06:52:35;100041.59;;;12.99;67.06
74778;BME280;63298;53.164;8.610;2023-04-24T06:55:04;100046.56;;;12.92;67.14
74778;BME280;63298;53.164;8.610;2023-04-24T06:57:30;100044.06;;;12.90;66.92
74778;BME280;63298;53.164;8.610;2023-04-24T06:59:55;100048.78;;;12.90;67.39
74778;BME280;63298;53.164;8.610;2023-04-24T07:02:21;100039.63;;;12.89;67.38
74778;BME280;63298;53.164;8.610;2023-04-24T07:04:46;100030.50;;;12.94;67.26
74778;BME280;63298;53.164;8.610;2023-04-24T07:07:12;100037.72;;;13.00;67.28
74778;BME280;63298;53.164;8.610;2023-04-24T07:09:37;100036.63;;;13.01;66.97
74778;BME280;63298;53.164;8.610;2023-04-24T07:12:03;100041.59;;;13.04;67.19
74778;BME280;63298;53.164;8.610;2023-04-24T07:14:28;100044.38;;;13.09;66.81
74778;BME280;63298;53.164;8.610;2023-04-24T07:16:53;100034.41;;;13.03;67.14
74778;BME280;63298;53.164;8.610;2023-04-24T07:19:18;100041.09;;;13.07;67.07
74778;BME280;63298;53.164;8.610;2023-04-24T07:21:44;100038.56;;;13.01;66.93
74778;BME280;63298;53.164;8.610;2023-04-24T07:24:09;100029.41;;;13.00;66.93
74778;BME280;63298;53.164;8.610;2023-04-24T07:26:34;100044.38;;;13.04;67.06
74778;BME280;63298;53.164;8.610;2023-04-24T07:29:00;100052.69;;;13.04;67.22
74778;BME280;63298;53.164;8.610;2023-04-24T07:31:25;100047.13;;;12.99;67.38
74778;BME280;63298;53.164;8.610;2023-04-24T07:33:50;100043.28;;;13.05;66.91
74778;BME280;63298;53.164;8.610;2023-04-24T07:36:16;100047.75;;;13.11;66.99
74778;BME280;63298;53.164;8.610;2023-04-24T07:38:47;100050.00;;;13.19;67.01
74778;BME280;63298;53.164;8.610;2023-04-24T07:41:14;100048.06;;;13.25;66.56
74778;BME280;63298;53.164;8.610;2023-04-24T07:43:39;100046.97;;;13.31;67.02
74778;BME280;63298;53.164;8.610;2023-04-24T07:46:05;100042.81;;;13.38;66.16
74778;BME280;63298;53.164;8.610;2023-04-24T07:48:31;100013.72;;;13.31;66.36
74778;BME280;63298;53.164;8.610;2023-04-24T07:50:56;100051.16;;;13.59;66.55
74778;BME280;63298;53.164;8.610;2023-04-24T07:53:21;100044.50;;;13.60;65.86
74778;BME280;63298;53.164;8.610;2023-04-24T07:55:47;100043.94;;;13.53;65.46
74778;BME280;63298;53.164;8.610;2023-04-24T07:58:12;100056.94;;;13.52;65.70
74778;BME280;63298;53.164;8.610;2023-04-24T08:00:37;100060.03;;;13.51;65.97
74778;BME280;63298;53.164;8.610;2023-04-24T08:03:03;100051.72;;;13.51;65.61
74778;BME280;63298;53.164;8.610;2023-04-24T08:05:28;100070.53;;;13.49;65.61
74778;BME280;63298;53.164;8.610;2023-04-24T08:07:54;100074.41;;;13.53;65.44
74778;BME280;63298;53.164;8.610;2023-04-24T08:10:20;100070.53;;;13.49;65.29
74778;BME280;63298;53.164;8.610;2023-04-24T08:12:46;100059.44;;;13.44;65.25
74778;BME280;63298;53.164;8.610;2023-04-24T08:15:11;100050.59;;;13.36;65.21
74778;BME280;63298;53.164;8.610;2023-04-24T08:17:36;100068.84;;;13.43;65.06
74778;BME280;63298;53.164;8.610;2023-04-24T08:20:03;100078.84;;;13.44;64.93
74778;BME280;63298;53.164;8.610;2023-04-24T08:22:28;100070.00;;;13.42;65.14
74778;BME280;63298;53.164;8.610;2023-04-24T08:24:54;100089.66;;;13.45;64.50
74778;BME280;63298;53.164;8.610;2023-04-24T08:27:19;100096.03;;;13.46;65.16
74778;BME280;63298;53.164;8.610;2023-04-24T08:29:45;100095.47;;;13.44;65.07
74778;BME280;63298;53.164;8.610;2023-04-24T08:32:10;100081.06;;;13.36;65.05
74778;BME280;63298;53.164;8.610;2023-04-24T08:34:35;100081.59;;;13.38;64.69
74778;BME280;63298;53.164;8.610;2023-04-24T08:37:01;100095.47;;;13.44;64.90
74778;BME280;63298;53.164;8.610;2023-04-24T08:39:27;100094.38;;;13.50;64.81
74778;BME280;63298;53.164;8.610;2023-04-24T08:41:53;100092.72;;;13.54;64.88
74778;BME280;63298;53.164;8.610;2023-04-24T08:44:19;100087.75;;;13.56;64.92
74778;BME280;63298;53.164;8.610;2023-04-24T08:46:45;100084.13;;;13.55;64.62
74778;BME280;63298;53.164;8.610;2023-04-24T08:49:11;100093.28;;;13.56;64.69
74778;BME280;63298;53.164;8.610;2023-04-24T08:51:37;100092.72;;;13.54;64.73
74778;BME280;63298;53.164;8.610;2023-04-24T08:54:04;100092.44;;;13.50;64.36
74778;BME280;63298;53.164;8.610;2023-04-24T08:56:30;100093.25;;;13.46;64.16
74778;BME280;63298;53.164;8.610;2023-04-24T08:58:58;100098.81;;;13.51;64.32
74778;BME280;63298;53.164;8.610;2023-04-24T09:01:24;100087.41;;;13.42;64.62
74778;BME280;63298;53.164;8.610;2023-04-24T09:03:51;100090.47;;;13.35;64.46
74778;BME280;63298;53.164;8.610;2023-04-24T09:06:19;100098.78;;;13.30;64.46
74778;BME280;63298;53.164;8.610;2023-04-24T09:08:45;100097.91;;;13.25;64.43
74778;BME280;63298;53.164;8.610;2023-04-24T09:11:12;100086.00;;;13.24;64.42
74778;BME280;63298;53.164;8.610;2023-04-24T09:13:38;100090.19;;;13.27;64.38
74778;BME280;63298;53.164;8.610;2023-04-24T09:16:04;100096.84;;;13.31;64.11
74778;BME280;63298;53.164;8.610;2023-04-24T09:18:29;100096.28;;;13.34;64.16
74778;BME280;63298;53.164;8.610;2023-04-24T09:23:26;100107.34;;;13.29;64.24
74778;BME280;63298;53.164;8.610;2023-04-24T09:25:54;100100.69;;;13.25;64.22
74778;BME280;63298;53.164;8.610;2023-04-24T09:28:25;100105.16;;;13.31;64.24
74778;BME280;63298;53.164;8.610;2023-04-24T09:31:23;100098.75;;;13.25;63.95
74778;BME280;63298;53.164;8.610;2023-04-24T09:39:01;100100.94;;;13.18;64.54
74778;BME280;63298;53.164;8.610;2023-04-24T09:41:27;100103.72;;;13.18;64.52
74778;BME280;63298;53.164;8.610;2023-04-24T09:43:54;100110.66;;;13.21;64.65
74778;BME280;63298;53.164;8.610;2023-04-24T09:46:20;100114.25;;;13.21;64.44
74778;BME280;63298;53.164;8.610;2023-04-24T09:48:45;100114.25;;;13.21;64.91
74778;BME280;63298;53.164;8.610;2023-04-24T09:51:11;100108.44;;;13.23;64.66
74778;BME280;63298;53.164;8.610;2023-04-24T09:53:37;100105.97;;;13.26;64.64
74778;BME280;63298;53.164;8.610;2023-04-24T09:56:07;100101.28;;;13.32;64.83
74778;BME280;63298;53.164;8.610;2023-04-24T09:58:35;100109.06;;;13.45;64.69
74778;BME280;63298;53.164;8.610;2023-04-24T10:01:00;100107.13;;;13.51;64.58
74778;BME280;63298;53.164;8.610;2023-04-24T10:03:26;100098.25;;;13.49;64.66
74778;BME280;63298;53.164;8.610;2023-04-24T10:05:52;100114.59;;;13.50;64.57
74778;BME280;63298;53.164;8.610;2023-04-24T10:08:17;100113.78;;;13.55;63.73
74778;BME280;63298;53.164;8.610;2023-04-24T10:10:45;100114.59;;;13.50;63.99
74778;BME280;63298;53.164;8.610;2023-04-24T10:13:12;100112.09;;;13.44;63.82
74778;BME280;63298;53.164;8.610;2023-04-24T10:15:39;100118.22;;;13.51;63.94
74778;BME280;63298;53.164;8.610;2023-04-24T10:18:05;100115.16;;;13.52;64.48
74778;BME280;63298;53.164;8.610;2023-04-24T10:20:31;100124.31;;;13.58;63.73
74778;BME280;63298;53.164;8.610;2023-04-24T10:22:57;100109.09;;;13.60;63.68
74778;BME280;63298;53.164;8.610;2023-04-24T10:25:24;100109.94;;;13.76;63.52
74778;BME280;63298;53.164;8.610;2023-04-24T10:27:51;100109.38;;;13.89;63.53
74778;BME280;63298;53.164;8.610;2023-04-24T10:30:17;100113.25;;;13.93;63.18
74778;BME280;63298;53.164;8.610;2023-04-24T10:32:43;100126.84;;;13.90;63.41
74778;BME280;63298;53.164;8.610;2023-04-24T10:35:10;100113.81;;;13.80;63.27
74778;BME280;63298;53.164;8.610;2023-04-24T10:37:39;100107.69;;;13.68;63.71
74778;BME280;63298;53.164;8.610;2023-04-24T10:40:06;100116.00;;;13.63;64.20
74778;BME280;63298;53.164;8.610;2023-04-24T10:42:32;100112.38;;;13.57;64.45
74778;BME280;63298;53.164;8.610;2023-04-24T10:44:57;100118.22;;;13.56;64.60
74778;BME280;63298;53.164;8.610;2023-04-24T10:47:23;100114.34;;;13.52;64.85
74778;BME280;63298;53.164;8.610;2023-04-24T10:49:50;100124.28;;;13.48;65.44
74778;BME280;63298;53.164;8.610;2023-04-24T10:52:16;100121.25;;;13.44;65.06
74778;BME280;63298;53.164;8.610;2023-04-24T10:54:44;100127.03;;;13.37;65.11
74778;BME280;63298;53.164;8.610;2023-04-24T10:59:45;100140.31;;;13.25;66.24
74778;BME280;63298;53.164;8.610;2023-04-24T11:02:10;100128.09;;;13.16;66.15
74778;BME280;63298;53.164;8.610;2023-04-24T11:04:37;100140.81;;;13.17;66.17
74778;BME280;63298;53.164;8.610;2023-04-24T11:07:03;100144.97;;;13.15;66.25
74778;BME280;63298;53.164;8.610;2023-04-24T11:09:30;100138.25;;;13.06;66.39
74778;BME280;63298;53.164;8.610;2023-04-24T11:12:07;100146.84;;;13.09;67.01
74778;BME280;63298;53.164;8.610;2023-04-24T11:17:30;100147.38;;;13.01;67.27
74778;BME280;63298;53.164;8.610;2023-04-24T11:20:07;100147.38;;;13.01;66.87
74778;BME280;63298;53.164;8.610;2023-04-24T11:22:34;100153.47;;;13.08;67.17
74778;BME280;63298;53.164;8.610;2023-04-24T11:25:00;100146.31;;;13.07;67.07
74778;BME280;63298;53.164;8.610;2023-04-24T11:27:30;100143.50;;;13.02;67.08
74778;BME280;63298;53.164;8.610;2023-04-24T11:34:50;100140.16;;;12.95;67.85
74778;BME280;63298;53.164;8.610;2023-04-24T11:37:16;100160.97;;;13.08;67.67
74778;BME280;63298;53.164;8.610;2023-04-24T11:39:41;100147.94;;;13.03;67.52
74778;BME280;63298;53.164;8.610;2023-04-24T11:42:08;100152.94;;;13.06;67.75
74778;BME280;63298;53.164;8.610;2023-04-24T11:44:34;100159.03;;;13.08;67.89
74778;BME280;63298;53.164;8.610;2023-04-24T11:47:00;100168.53;;;13.12;67.70
74778;BME280;63298;53.164;8.610;2023-04-24T11:49:25;100170.41;;;13.07;67.80
74778;BME280;63298;53.164;8.610;2023-04-24T11:51:55;100173.13;;;13.02;68.00
74778;BME280;63298;53.164;8.610;2023-04-24T11:54:20;100173.09;;;12.91;68.57
74778;BME280;63298;53.164;8.610;2023-04-24T11:56:49;100177.47;;;12.82;68.78
74778;BME280;63298;53.164;8.610;2023-04-24T11:59:14;100186.84;;;12.76;69.44
74778;BME280;63298;53.164;8.610;2023-04-24T12:01:46;100181.19;;;12.61;69.44
74778;BME280;63298;53.164;8.610;2023-04-24T12:04:13;100200.91;;;12.70;69.22
74778;BME280;63298;53.164;8.610;2023-04-24T12:06:38;100194.50;;;12.64;69.68
74778;BME280;63298;53.164;8.610;2023-04-24T12:09:04;100201.13;;;12.63;69.50
74778;BME280;63298;53.164;8.610;2023-04-24T12:11:29;100199.78;;;12.66;69.86
74778;BME280;63298;53.164;8.610;2023-04-24T12:13:55;100215.25;;;12.62;70.26
74778;BME280;63298;53.164;8.610;2023-04-24T12:16:20;100202.25;;;12.62;70.00
74778;BME280;63298;53.164;8.610;2023-04-24T12:18:45;100200.00;;;12.59;70.35
74778;BME280;63298;53.164;8.610;2023-04-24T12:21:19;100195.28;;;12.60;69.90
74778;BME280;63298;53.164;8.610;2023-04-24T12:23:45;100199.22;;;12.69;69.35
74778;BME280;63298;53.164;8.610;2023-04-24T12:26:10;100203.97;;;12.73;69.68
74778;BME280;63298;53.164;8.610;2023-04-24T12:28:37;100215.06;;;12.78;69.93
74778;BME280;63298;53.164;8.610;2023-04-24T12:31:03;100200.38;;;12.73;69.52
74778;BME280;63298;53.164;8.610;2023-04-24T12:33:32;100203.69;;;12.75;69.86
74778;BME280;63298;53.164;8.610;2023-04-24T12:35:58;100216.47;;;12.81;70.16
74778;BME280;63298;53.164;8.610;2023-04-24T12:38:26;100222.06;;;12.86;69.90
74778;BME280;63298;53.164;8.610;2023-04-24T12:41:06;100235.31;;;12.84;70.83
74778;BME280;63298;53.164;8.610;2023-04-24T12:43:31;100232.50;;;12.79;69.95
74778;BME280;63298;53.164;8.610;2023-04-24T12:45:57;100233.81;;;12.66;70.96
74778;BME280;63298;53.164;8.610;2023-04-24T12:48:22;100257.75;;;12.50;72.34
74778;BME280;63298;53.164;8.610;2023-04-24T12:50:48;100236.28;;;12.31;71.98
74778;BME280;63298;53.164;8.610;2023-04-24T12:53:14;100261.88;;;12.16;73.58
74778;BME280;63298;53.164;8.610;2023-04-24T12:55:39;100280.97;;;11.91;74.75
74778;BME280;63298;53.164;8.610;2023-04-24T12:58:05;100278.06;;;11.81;74.14
74778;BME280;63298;53.164;8.610;2023-04-24T13:00:30;100289.25;;;11.69;75.98
74778;BME280;63298;53.164;8.610;2023-04-24T13:02:55;100281.09;;;11.57;74.74
74778;BME280;63298;53.164;8.610;2023-04-24T13:05:21;100298.25;;;11.38;75.23